createdAt,value
2019-05-21T00:00:32.435Z,9.33
2019-05-21T00:03:03.601Z,9.50
2019-05-21T00:05:35.785Z,8.38
2019-05-21T00:08:06.954Z,14.13
2019-05-21T00:10:38.026Z,14.55
2019-05-21T00:13:09.068Z,14.00
2019-05-21T00:15:39.827Z,10.98
2019-05-21T00:18:10.881Z,14.65
2019-05-21T00:20:41.964Z,10.25
2019-05-21T00:23:13.022Z,12.58
2019-05-21T00:25:43.859Z,7.53
2019-05-21T00:28:35.603Z,14.30
2019-05-21T00:31:43.477Z,9.78
2019-05-21T00:34:50.217Z,15.15
2019-05-21T00:37:57.194Z,10.82
2019-05-21T00:41:04.053Z,15.18
2019-05-21T00:43:37.872Z,10.93
2019-05-21T00:46:08.728Z,10.48
2019-05-21T00:48:39.785Z,8.78
2019-05-21T00:51:10.746Z,8.10
2019-05-21T00:53:41.687Z,8.25
2019-05-21T00:56:12.657Z,6.78
2019-05-21T00:58:43.399Z,8.63
2019-05-21T01:01:14.480Z,7.47
2019-05-21T01:03:45.315Z,6.05
2019-05-21T01:06:17.315Z,4.33
2019-05-21T01:08:48.666Z,5.97
2019-05-21T01:11:19.649Z,6.25
2019-05-21T01:13:50.706Z,5.72
2019-05-21T01:16:21.644Z,9.65
2019-05-21T01:18:52.708Z,8.90
2019-05-21T01:21:23.680Z,6.83
2019-05-21T01:23:54.557Z,5.87
2019-05-21T01:26:25.579Z,6.53
2019-05-21T01:28:56.536Z,6.33
2019-05-21T01:31:27.494Z,5.58
2019-05-21T01:33:58.455Z,10.28
2019-05-21T01:36:29.429Z,10.32
2019-05-21T01:39:00.491Z,10.38
2019-05-21T01:41:31.328Z,11.38
2019-05-21T01:44:02.740Z,9.43
2019-05-21T01:46:33.782Z,6.05
2019-05-21T01:49:04.968Z,13.30
2019-05-21T01:51:35.574Z,11.38
2019-05-21T01:54:06.444Z,7.50
2019-05-21T01:56:37.550Z,10.28
2019-05-21T01:59:09.077Z,9.88
2019-05-21T02:01:40.136Z,7.80
2019-05-21T02:04:11.184Z,8.73
2019-05-21T02:06:43.266Z,11.18
2019-05-21T02:09:14.345Z,6.70
2019-05-21T02:11:45.283Z,8.93
2019-05-21T02:14:16.259Z,7.72
2019-05-21T02:16:47.102Z,7.97
2019-05-21T02:19:18.157Z,6.83
2019-05-21T02:21:49.138Z,5.87
2019-05-21T02:24:20.198Z,8.85
2019-05-21T02:26:51.158Z,11.65
2019-05-21T02:29:21.996Z,6.58
2019-05-21T02:31:53.075Z,7.45
2019-05-21T02:34:24.029Z,5.00
2019-05-21T02:36:54.994Z,5.87
2019-05-21T02:39:26.031Z,3.80
2019-05-21T02:41:56.904Z,9.55
2019-05-21T02:44:27.970Z,4.83
2019-05-21T02:46:58.928Z,7.35
2019-05-21T02:49:29.969Z,10.23
2019-05-21T02:52:00.829Z,8.60
2019-05-21T02:54:41.133Z,22.65
2019-05-21T02:57:04.497Z,15.88
2019-05-21T02:59:35.559Z,7.47
2019-05-21T03:02:13.760Z,13.13
2019-05-21T03:04:44.736Z,7.33
2019-05-21T03:07:19.473Z,8.55
2019-05-21T03:09:50.759Z,6.53
2019-05-21T03:12:21.623Z,9.53
2019-05-21T03:14:52.764Z,8.85
2019-05-21T03:17:24.017Z,6.30
2019-05-21T03:19:54.880Z,6.58
2019-05-21T03:22:25.943Z,4.60
2019-05-21T03:25:01.873Z,13.00
2019-05-21T03:27:29.502Z,15.58
2019-05-21T03:30:00.457Z,6.22
2019-05-21T03:32:31.296Z,5.78
2019-05-21T03:35:02.432Z,9.28
2019-05-21T03:37:33.417Z,7.87
2019-05-21T03:40:06.101Z,6.60
2019-05-21T03:42:36.664Z,8.80
2019-05-21T03:45:08.426Z,9.73
2019-05-21T03:47:39.110Z,3.33
2019-05-21T03:50:10.216Z,8.25
2019-05-21T03:52:41.026Z,6.42
2019-05-21T03:55:12.531Z,9.93
2019-05-21T03:57:43.559Z,6.22
2019-05-21T04:00:14.399Z,5.22
2019-05-21T04:02:45.354Z,5.00
2019-05-21T04:05:21.851Z,5.62
2019-05-21T04:07:53.914Z,7.00
2019-05-21T04:10:24.893Z,4.35
2019-05-21T04:13:08.874Z,3.30
2019-05-21T04:15:57.596Z,9.55
2019-05-21T04:18:29.985Z,3.87
2019-05-21T04:21:00.970Z,6.10
2019-05-21T04:23:32.005Z,5.62
2019-05-21T04:26:03.053Z,3.42
2019-05-21T04:28:33.904Z,6.12
2019-05-21T04:31:04.758Z,4.33
2019-05-21T04:33:35.845Z,12.60
2019-05-21T04:36:06.782Z,5.28
2019-05-21T04:38:37.869Z,5.10
2019-05-21T04:41:08.815Z,6.17
2019-05-21T04:43:39.655Z,6.62
2019-05-21T04:46:10.737Z,3.25
2019-05-21T04:48:41.691Z,7.33
2019-05-21T04:51:13.984Z,6.90
2019-05-21T04:53:44.817Z,5.78
2019-05-21T04:56:15.490Z,6.20
2019-05-21T04:58:46.343Z,7.50
2019-05-21T05:01:17.401Z,4.45
2019-05-21T05:03:48.361Z,4.12
2019-05-21T05:06:19.403Z,4.08
2019-05-21T05:08:50.260Z,2.80
2019-05-21T05:11:21.233Z,3.10
2019-05-21T05:13:52.297Z,6.92
2019-05-21T05:16:23.237Z,5.05
2019-05-21T05:18:54.316Z,5.40
2019-05-21T05:21:25.256Z,4.65
2019-05-21T05:23:56.131Z,5.30
2019-05-21T05:26:27.295Z,3.45
2019-05-21T05:28:58.251Z,3.80
2019-05-21T05:31:29.312Z,9.45
2019-05-21T05:34:00.167Z,3.85
2019-05-21T05:36:31.215Z,4.78
2019-05-21T05:39:02.067Z,2.62
2019-05-21T05:41:33.024Z,4.60
2019-05-21T05:44:04.123Z,4.17
2019-05-21T05:46:35.062Z,6.95
2019-05-21T05:49:19.928Z,5.50
2019-05-21T05:51:50.869Z,6.65
2019-05-21T05:54:21.441Z,6.05
2019-05-21T05:56:52.500Z,3.45
2019-05-21T05:59:23.457Z,8.75
2019-05-21T06:01:54.326Z,6.92
2019-05-21T06:04:25.480Z,3.55
2019-05-21T06:06:56.433Z,2.35
2019-05-21T06:09:28.526Z,9.43
2019-05-21T06:11:59.684Z,6.87
2019-05-21T06:14:30.640Z,3.60
2019-05-21T06:17:01.824Z,4.15
2019-05-21T06:19:32.863Z,5.30
2019-05-21T06:22:03.931Z,4.78
2019-05-21T06:24:34.882Z,9.85
2019-05-21T06:27:05.736Z,5.67
2019-05-21T06:29:39.533Z,4.83
2019-05-21T06:32:09.393Z,7.70
2019-05-21T06:34:40.459Z,6.28
2019-05-21T06:37:11.414Z,10.90
2019-05-21T06:39:42.474Z,5.25
2019-05-21T06:42:13.414Z,2.67
2019-05-21T06:44:44.402Z,10.13
2019-05-21T06:47:15.763Z,3.62
2019-05-21T06:49:46.500Z,6.83
2019-05-21T06:52:17.574Z,5.83
2019-05-21T06:54:48.532Z,5.55
2019-05-21T06:57:19.596Z,7.12
2019-05-21T06:59:50.855Z,5.67
2019-05-21T07:02:21.712Z,6.67
2019-05-21T07:04:52.653Z,8.20
2019-05-21T07:07:23.509Z,4.65
2019-05-21T07:09:55.595Z,10.80
2019-05-21T07:12:26.774Z,4.00
2019-05-21T07:14:57.729Z,3.98
2019-05-21T07:17:28.792Z,2.72
2019-05-21T07:19:59.751Z,3.37
2019-05-21T07:22:30.843Z,4.33
2019-05-21T07:25:01.923Z,4.72
2019-05-21T07:27:33.800Z,1.62
2019-05-21T07:30:06.209Z,3.87
2019-05-21T07:32:36.909Z,3.27
2019-05-21T07:35:08.059Z,5.50
2019-05-21T07:37:39.120Z,10.23
2019-05-21T07:40:10.420Z,4.78
2019-05-21T07:42:41.037Z,5.35
2019-05-21T07:45:12.402Z,3.90
2019-05-21T07:47:43.052Z,6.35
2019-05-21T07:50:14.832Z,4.08
2019-05-21T07:52:45.908Z,3.47
2019-05-21T07:55:16.951Z,4.17
2019-05-21T07:57:47.790Z,3.77
2019-05-21T08:00:20.423Z,6.03
2019-05-21T08:02:51.037Z,6.87
2019-05-21T08:05:22.019Z,6.97
2019-05-21T08:07:53.054Z,6.65
2019-05-21T08:10:24.237Z,4.42
2019-05-21T08:12:55.403Z,2.95
2019-05-21T08:15:26.361Z,11.78
2019-05-21T08:17:57.403Z,4.97
2019-05-21T08:20:28.788Z,11.88
2019-05-21T08:22:59.950Z,5.60
2019-05-21T08:25:30.788Z,8.10
2019-05-21T08:28:06.268Z,3.55
2019-05-21T08:30:55.344Z,4.95
2019-05-21T08:33:26.266Z,5.25
2019-05-21T08:35:57.138Z,4.37
2019-05-21T08:38:28.202Z,3.15
2019-05-21T08:40:59.159Z,8.80
2019-05-21T08:43:30.017Z,3.55
2019-05-21T08:46:01.076Z,3.33
2019-05-21T08:48:32.015Z,3.90
2019-05-21T08:51:03.093Z,1.52
2019-05-21T08:53:34.068Z,3.12
2019-05-21T08:56:05.115Z,2.22
2019-05-21T08:58:35.762Z,2.77
2019-05-21T09:01:07.142Z,4.95
2019-05-21T09:03:38.177Z,5.95
2019-05-21T09:06:09.153Z,2.50
2019-05-21T09:08:40.211Z,5.20
2019-05-21T09:11:12.073Z,4.95
2019-05-21T09:13:43.150Z,4.17
2019-05-21T09:16:13.887Z,5.42
2019-05-21T09:18:44.950Z,8.08
2019-05-21T09:21:15.807Z,7.08
2019-05-21T09:23:46.676Z,3.12
2019-05-21T09:26:17.738Z,4.30
2019-05-21T09:28:48.697Z,5.72
2019-05-21T09:31:19.759Z,6.12
2019-05-21T09:33:50.809Z,5.25
2019-05-21T09:36:25.039Z,3.25
2019-05-21T09:38:54.148Z,2.25
2019-05-21T09:41:25.025Z,2.77
2019-05-21T09:43:56.581Z,4.72
2019-05-21T09:46:27.127Z,5.40
2019-05-21T09:48:58.105Z,2.98
2019-05-21T09:51:29.166Z,2.87
2019-05-21T09:54:00.121Z,1.47
2019-05-21T09:56:35.675Z,4.47
2019-05-21T09:59:28.614Z,3.02
2019-05-21T10:02:01.226Z,2.10
2019-05-21T10:04:39.755Z,4.90
2019-05-21T10:07:10.716Z,4.30
2019-05-21T10:09:41.759Z,3.00
2019-05-21T10:12:14.047Z,3.52
2019-05-21T10:14:44.797Z,6.35
2019-05-21T10:17:15.874Z,3.92
2019-05-21T10:19:46.820Z,3.33
2019-05-21T10:22:17.892Z,3.47
2019-05-21T10:24:49.042Z,0.82
2019-05-21T10:27:20.119Z,3.67
2019-05-21T10:29:51.165Z,3.60
2019-05-21T10:32:21.726Z,4.30
2019-05-21T10:34:52.790Z,2.60
2019-05-21T10:37:23.420Z,3.35
2019-05-21T10:39:57.961Z,4.70
2019-05-21T10:42:31.217Z,9.95
2019-05-21T10:45:03.891Z,9.60
2019-05-21T10:47:34.721Z,13.05
2019-05-21T10:50:07.665Z,7.75
2019-05-21T10:52:38.298Z,8.63
2019-05-21T10:55:17.646Z,8.40
2019-05-21T10:57:50.746Z,5.72
2019-05-21T11:00:23.271Z,5.70
2019-05-21T11:02:58.399Z,3.65
2019-05-21T11:05:42.947Z,7.83
2019-05-21T11:08:24.137Z,3.77
2019-05-21T11:10:46.280Z,3.20
2019-05-21T11:13:18.159Z,4.12
2019-05-21T11:15:49.134Z,8.35
2019-05-21T11:18:20.304Z,9.20
2019-05-21T11:20:51.412Z,6.35
2019-05-21T11:23:22.511Z,12.00
2019-05-21T11:25:53.539Z,6.28
2019-05-21T11:28:24.932Z,12.80
2019-05-21T11:30:55.807Z,3.98
2019-05-21T11:33:26.746Z,8.75
2019-05-21T11:35:57.706Z,8.40
2019-05-21T11:38:39.404Z,5.47
2019-05-21T11:41:00.856Z,6.03
2019-05-21T11:43:31.828Z,6.25
2019-05-21T11:46:03.287Z,3.95
2019-05-21T11:48:34.357Z,12.15
2019-05-21T11:51:05.573Z,9.85
2019-05-21T11:53:36.170Z,2.95
2019-05-21T11:56:07.009Z,4.92
2019-05-21T11:58:39.817Z,2.62
2019-05-21T12:01:10.477Z,6.72
2019-05-21T12:03:41.437Z,15.85
2019-05-21T12:06:12.481Z,10.78
2019-05-21T12:08:55.517Z,1.75
2019-05-21T12:11:15.840Z,8.33
2019-05-21T12:13:47.834Z,5.37
2019-05-21T12:16:18.877Z,3.95
2019-05-21T12:19:08.160Z,6.17
2019-05-21T12:21:39.296Z,4.08
2019-05-21T12:24:10.174Z,7.55
2019-05-21T12:26:41.225Z,5.58
2019-05-21T12:29:12.192Z,6.20
2019-05-21T12:31:43.252Z,13.50
2019-05-21T12:34:14.211Z,5.53
2019-05-21T12:36:45.069Z,6.85
2019-05-21T12:39:16.151Z,9.80
2019-05-21T12:41:47.187Z,6.80
2019-05-21T12:44:18.249Z,5.08
2019-05-21T12:46:49.206Z,4.95
2019-05-21T12:49:20.147Z,5.30
2019-05-21T12:51:51.104Z,6.15
2019-05-21T12:54:21.962Z,3.98
2019-05-21T12:56:53.023Z,8.13
2019-05-21T12:59:23.980Z,3.75
2019-05-21T13:01:54.855Z,5.00
2019-05-21T13:04:25.916Z,2.92
2019-05-21T13:06:56.873Z,10.88
2019-05-21T13:09:32.848Z,4.42
2019-05-21T13:12:00.324Z,8.55
2019-05-21T13:14:32.100Z,4.53
2019-05-21T13:17:02.639Z,10.13
2019-05-21T13:19:33.713Z,6.83
2019-05-21T13:22:04.874Z,5.00
2019-05-21T13:24:35.936Z,3.52
2019-05-21T13:27:07.200Z,4.03
2019-05-21T13:29:37.975Z,6.87
2019-05-21T13:32:09.526Z,7.20
2019-05-21T13:34:40.383Z,6.80
2019-05-21T13:37:11.444Z,4.90
2019-05-21T13:39:49.829Z,6.78
2019-05-21T13:42:14.690Z,6.42
2019-05-21T13:44:45.652Z,3.85
2019-05-21T13:47:16.501Z,5.15
2019-05-21T13:49:47.564Z,3.27
2019-05-21T13:52:20.297Z,4.28
2019-05-21T13:54:56.830Z,6.05
2019-05-21T13:57:32.929Z,4.12
2019-05-21T14:00:08.183Z,7.47
2019-05-21T14:02:39.260Z,5.45
2019-05-21T14:05:11.038Z,1.90
2019-05-21T14:07:41.992Z,1.87
2019-05-21T14:10:19.874Z,5.03
2019-05-21T14:12:49.203Z,7.40
2019-05-21T14:15:21.185Z,5.87
2019-05-21T14:17:52.349Z,5.85
2019-05-21T14:20:23.526Z,10.75
2019-05-21T14:22:54.571Z,8.05
2019-05-21T14:25:25.528Z,6.37
2019-05-21T14:27:56.631Z,9.10
2019-05-21T14:30:27.800Z,6.45
2019-05-21T14:32:58.916Z,4.00
2019-05-21T14:35:30.160Z,4.30
2019-05-21T14:38:01.267Z,6.30
2019-05-21T14:40:33.989Z,4.78
2019-05-21T14:43:06.535Z,3.75
2019-05-21T14:45:37.591Z,6.12
2019-05-21T14:48:08.684Z,5.25
2019-05-21T14:50:39.497Z,4.03
2019-05-21T14:53:10.557Z,15.72
2019-05-21T14:55:41.737Z,4.25
2019-05-21T14:58:12.571Z,4.05
2019-05-21T15:00:43.655Z,3.05
2019-05-21T15:03:24.887Z,8.65
2019-05-21T15:05:47.084Z,5.85
2019-05-21T15:08:18.146Z,6.45
2019-05-21T15:10:49.756Z,10.80
2019-05-21T15:13:20.797Z,5.83
2019-05-21T15:15:52.781Z,8.25
2019-05-21T15:18:24.119Z,5.30
2019-05-21T15:20:56.732Z,4.60
2019-05-21T15:23:27.807Z,5.00
2019-05-21T15:25:58.666Z,8.23
2019-05-21T15:28:29.715Z,4.08
2019-05-21T15:31:00.563Z,5.65
2019-05-21T15:33:31.432Z,6.65
2019-05-21T15:36:02.490Z,7.22
2019-05-21T15:38:48.730Z,4.17
2019-05-21T15:41:11.885Z,10.60
2019-05-21T15:43:38.535Z,6.65
2019-05-21T15:46:09.594Z,3.95
2019-05-21T15:48:40.563Z,7.83
2019-05-21T15:51:11.444Z,6.12
2019-05-21T15:53:42.578Z,3.60
2019-05-21T15:56:13.543Z,2.20
2019-05-21T15:58:44.583Z,6.15
2019-05-21T16:01:15.533Z,6.42
2019-05-21T16:03:46.202Z,6.37
2019-05-21T16:06:17.244Z,5.10
2019-05-21T16:08:47.939Z,5.97
2019-05-21T16:11:27.954Z,7.60
2019-05-21T16:13:51.450Z,5.97
2019-05-21T16:16:23.347Z,4.55
2019-05-21T16:18:54.406Z,9.88
2019-05-21T16:21:25.468Z,7.80
2019-05-21T16:23:56.410Z,6.12
2019-05-21T16:26:28.000Z,7.20
2019-05-21T16:28:58.653Z,6.17
2019-05-21T16:31:29.812Z,7.10
2019-05-21T16:34:01.587Z,13.88
2019-05-21T16:36:32.261Z,10.55
2019-05-21T16:39:03.653Z,6.90
2019-05-21T16:41:44.614Z,10.03
2019-05-21T16:44:08.693Z,8.28
2019-05-21T16:46:42.496Z,8.15
2019-05-21T16:49:12.349Z,6.78
2019-05-21T16:51:44.009Z,8.55
2019-05-21T16:54:14.682Z,11.15
2019-05-21T16:56:45.517Z,11.00
2019-05-21T16:59:16.593Z,9.18
2019-05-21T17:01:47.658Z,8.80
2019-05-21T17:04:18.392Z,10.00
2019-05-21T17:06:49.467Z,8.38
2019-05-21T17:09:20.410Z,11.48
2019-05-21T17:11:59.445Z,11.78
2019-05-21T17:14:23.777Z,15.50
2019-05-21T17:16:55.758Z,8.08
2019-05-21T17:19:28.351Z,7.75
2019-05-21T17:21:59.419Z,10.15
2019-05-21T17:24:30.393Z,12.88
2019-05-21T17:27:01.641Z,18.30
2019-05-21T17:29:35.052Z,16.60
2019-05-21T17:32:06.748Z,15.05
2019-05-21T17:34:37.807Z,11.45
2019-05-21T17:37:08.725Z,8.28
2019-05-21T17:39:40.064Z,6.67
2019-05-21T17:42:15.683Z,11.50
2019-05-21T17:44:43.547Z,9.43
2019-05-21T17:47:14.510Z,11.90
2019-05-21T17:49:45.578Z,8.33
2019-05-21T17:52:16.112Z,9.83
2019-05-21T17:54:56.491Z,11.00
2019-05-21T17:57:19.891Z,15.03
2019-05-21T17:59:50.726Z,7.72
2019-05-21T18:02:22.624Z,9.78
2019-05-21T18:04:53.685Z,8.68
2019-05-21T18:07:24.702Z,6.75
2019-05-21T18:09:55.275Z,9.63
2019-05-21T18:12:32.189Z,8.95
2019-05-21T18:14:59.593Z,9.20
2019-05-21T18:17:33.081Z,6.60
2019-05-21T18:20:06.594Z,11.55
2019-05-21T18:22:40.007Z,5.97
2019-05-21T18:25:12.160Z,13.35
2019-05-21T18:27:43.192Z,19.15
2019-05-21T18:30:14.837Z,16.15
2019-05-21T18:32:46.195Z,14.83
2019-05-21T18:35:17.456Z,10.10
2019-05-21T18:37:47.991Z,10.25
2019-05-21T18:40:19.100Z,9.50
2019-05-21T18:42:50.010Z,11.38
2019-05-21T18:45:21.209Z,18.25
2019-05-21T18:47:52.029Z,14.33
2019-05-21T18:50:34.958Z,16.90
2019-05-21T18:52:55.275Z,16.48
2019-05-21T18:55:26.234Z,17.40
2019-05-21T18:57:57.210Z,13.83
2019-05-21T19:00:28.370Z,8.35
2019-05-21T19:02:59.024Z,14.03
2019-05-21T19:05:30.091Z,15.38
2019-05-21T19:08:01.148Z,14.30
2019-05-21T19:10:32.106Z,13.58
2019-05-21T19:13:03.375Z,11.65
2019-05-21T19:15:34.020Z,10.48
2019-05-21T19:18:05.986Z,9.70
2019-05-21T19:20:37.255Z,9.80
2019-05-21T19:23:08.224Z,10.72
2019-05-21T19:25:39.283Z,8.75
2019-05-21T19:28:11.471Z,15.45
2019-05-21T19:30:42.436Z,15.98
2019-05-21T19:33:13.393Z,16.40
2019-05-21T19:35:44.331Z,13.10
2019-05-21T19:38:16.007Z,10.40
2019-05-21T19:40:47.080Z,6.05
2019-05-21T19:43:18.145Z,12.93
2019-05-21T19:45:49.100Z,9.98
2019-05-21T19:48:20.041Z,10.45
2019-05-21T19:50:50.999Z,13.32
2019-05-21T19:53:21.960Z,12.18
2019-05-21T19:55:53.686Z,13.45
2019-05-21T19:58:24.471Z,17.70
2019-05-21T20:00:55.266Z,15.65
2019-05-21T20:03:26.833Z,12.15
2019-05-21T20:05:57.894Z,15.18
2019-05-21T20:08:29.780Z,11.90
2019-05-21T20:11:00.524Z,9.00
2019-05-21T20:13:32.932Z,8.55
2019-05-21T20:16:05.714Z,8.45
2019-05-21T20:18:37.696Z,12.80
2019-05-21T20:21:09.175Z,11.33
2019-05-21T20:23:40.329Z,11.93
2019-05-21T20:26:15.583Z,11.65
2019-05-21T20:28:47.053Z,10.45
2019-05-21T20:31:18.268Z,15.55
2019-05-21T20:33:50.401Z,11.22
2019-05-21T20:36:21.856Z,9.73
2019-05-21T20:38:54.195Z,11.48
2019-05-21T20:41:25.730Z,12.35
2019-05-21T20:43:59.026Z,11.55
2019-05-21T20:46:29.574Z,12.63
2019-05-21T20:49:01.457Z,13.85
2019-05-21T20:51:32.123Z,11.57
2019-05-21T20:54:02.655Z,20.77
2019-05-21T20:56:34.241Z,14.13
2019-05-21T20:59:05.388Z,14.93
2019-05-21T21:01:36.757Z,11.10
2019-05-21T21:04:07.735Z,12.75
2019-05-21T21:06:39.817Z,10.53
2019-05-21T21:09:12.104Z,15.20
2019-05-21T21:11:43.432Z,10.15
2019-05-21T21:14:18.238Z,8.55
2019-05-21T21:16:48.947Z,10.58
2019-05-21T21:19:20.522Z,16.07
2019-05-21T21:21:51.295Z,19.42
2019-05-21T21:24:22.561Z,7.08
2019-05-21T21:26:53.621Z,10.85
2019-05-21T21:29:24.486Z,14.30
2019-05-21T21:31:55.314Z,19.17
2019-05-21T21:34:26.056Z,14.95
2019-05-21T21:36:57.396Z,12.23
2019-05-21T21:39:27.999Z,11.75
2019-05-21T21:41:59.264Z,14.50
2019-05-21T21:44:34.165Z,10.15
2019-05-21T21:47:03.438Z,14.93
2019-05-21T21:49:34.721Z,18.32
2019-05-21T21:52:07.374Z,14.58
2019-05-21T21:54:40.169Z,16.80
2019-05-21T21:57:11.134Z,14.43
2019-05-21T21:59:41.688Z,14.38
2019-05-21T22:02:31.772Z,18.65
2019-05-21T22:05:03.343Z,16.17
2019-05-21T22:07:34.828Z,14.00
2019-05-21T22:10:08.491Z,9.25
2019-05-21T22:12:39.290Z,13.08
2019-05-21T22:15:11.147Z,11.33
2019-05-21T22:17:42.849Z,16.82
2019-05-21T22:20:14.959Z,17.87
2019-05-21T22:22:45.795Z,14.47
2019-05-21T22:25:16.562Z,9.85
2019-05-21T22:27:47.392Z,13.10
2019-05-21T22:30:19.370Z,11.93
2019-05-21T22:32:50.446Z,11.22
2019-05-21T22:35:21.507Z,7.78
2019-05-21T22:37:52.262Z,9.90
2019-05-21T22:40:40.077Z,11.57
2019-05-21T22:43:11.139Z,8.03
2019-05-21T22:45:42.114Z,8.55
2019-05-21T22:48:12.954Z,13.70
2019-05-21T22:50:44.016Z,12.55
2019-05-21T22:53:14.990Z,11.15
2019-05-21T22:55:46.052Z,14.28
2019-05-21T22:58:17.015Z,10.05
2019-05-21T23:00:48.257Z,10.65
2019-05-21T23:03:19.216Z,9.90
2019-05-21T23:05:49.783Z,8.40
2019-05-21T23:08:20.925Z,7.08
2019-05-21T23:10:52.003Z,7.70
2019-05-21T23:13:23.045Z,7.25
2019-05-21T23:15:55.365Z,9.93
2019-05-21T23:18:26.857Z,12.20
2019-05-21T23:20:59.521Z,5.62
2019-05-21T23:23:32.507Z,10.82
2019-05-21T23:26:03.836Z,10.03
2019-05-21T23:28:35.157Z,6.05
2019-05-21T23:31:06.432Z,9.00
2019-05-21T23:33:37.792Z,8.15
2019-05-21T23:36:09.053Z,13.30
2019-05-21T23:38:40.814Z,10.68
2019-05-21T23:41:11.586Z,10.13
2019-05-21T23:43:42.544Z,11.10
2019-05-21T23:46:14.624Z,7.10
2019-05-21T23:48:45.688Z,8.83
2019-05-21T23:51:16.322Z,10.80
2019-05-21T23:53:47.282Z,12.80
2019-05-21T23:56:18.052Z,10.08
2019-05-21T23:58:49.354Z,6.28
